Date,TemperatureHighF,TemperatureAvgF,TemperatureLowF,DewpointHighF,DewpointAvgF,DewpointLowF,HumidityHigh,HumidityAvg,HumidityLow,PressureMaxIn,PressureMinIn,WindSpeedMaxMPH,WindSpeedAvgMPH,GustSpeedMaxMPH,PrecipitationSumIn
2013-1-1,39,37,30,32,29,22,81,74,66,30.04,29.90,11,4,14,0.00
2013-1-2,31,28,26,22,18,16,74,67,58,30.13,30.00,15,4,17,0.00
2013-1-3,33,27,21,21,18,15,80,70,59,30.24,30.13,15,7,15,0.00
2013-1-4,37,32,28,25,22,20,75,67,59,30.18,30.06,23,13,23,0.00
2013-1-5,37,31,26,25,22,21,85,71,57,30.38,30.11,19,7,19,0.00
2013-1-6,46,36,23,33,29,21,97,74,54,30.24,30.02,18,6,18,0.01
2013-1-7,43,35,23,32,27,20,92,73,58,30.43,30.13,12,3,16,0.00
2013-1-8,48,32,22,35,28,20,97,84,58,30.44,30.38,10,2,13,0.00
2013-1-9,46,37,26,40,34,24,96,87,75,30.41,30.21,8,3,12,0.00
2013-1-10,43,41,40,34,31,28,77,68,56,30.43,30.35,9,5,13,0.00
2013-1-11,44,39,31,42,35,26,97,85,78,30.52,30.09,10,4,10,0.37
2013-1-12,55,45,41,52,44,40,98,95,85,30.18,30.10,5,3,5,0.01
2013-1-13,46,43,39,46,43,38,99,98,96,30.15,30.00,10,4,10,0.02
2013-1-14,52,48,40,52,45,37,100,90,68,30.30,29.97,16,7,16,0.31
2013-1-15,39,36,33,38,32,30,96,85,78,30.34,30.19,9,1,9,0.49
2013-1-16,33,32,32,31,31,31,96,95,93,30.18,30.12,3,1,8,0.59
2013-1-17,40,38,35,36,31,30,94,77,66,30.12,29.97,17,7,17,0.00
2013-1-18,35,29,22,29,18,11,80,65,44,30.50,30.04,25,9,25,0.00
2013-1-19,48,36,25,32,27,16,86,69,51,30.43,29.97,20,11,20,0.00
2013-1-20,53,41,29,34,26,17,70,56,35,30.08,29.78,28,17,28,0.00
2013-1-21,34,28,22,24,17,12,90,64,51,30.12,29.85,14,3,14,0.02
2013-1-22,24,16,12,15,2,-2,73,52,42,30.30,29.92,20,9,31,0.00
2013-1-23,18,13,10,4,1,-1,75,59,45,30.33,30.20,15,5,20,0.00
2013-1-24,23,17,10,10,6,0,83,62,37,30.50,30.15,17,4,21,0.00
2013-1-25,20,16,7,13,6,2,89,68,46,30.51,30.10,7,2,12,0.00
2013-1-26,25,18,6,16,13,4,93,78,63,30.45,30.10,11,3,16,0.00
2013-1-27,33,22,8,19,14,6,92,73,52,30.60,30.44,10,2,12,0.00
2013-1-28,36,31,21,36,29,17,97,92,82,30.54,30.07,10,3,13,0.10
2013-1-29,61,44,35,52,41,34,98,92,70,30.16,30.03,5,1,8,0.00
2013-1-30,66,52,40,60,51,38,99,95,82,30.03,29.28,19,4,32,0.94
2013-1-31,61,41,26,61,31,12,100,68,44,29.88,29.11,31,13,39,0.59